Time;durP1;ratioP1;P1;durP2;ratioP2;P2;SDS_P1;SDS_P2;PMS_P1;PMS_P2;Temp;Humidity;BMP_temperature;BMP_pressure;BME280_temperature;BME280_humidity;BME280_pressure;Samples;Min_cycle;Max_cycle;Signal;HPM_P1;HPM_P2
2024/01/26 00:00:08;;;;;;;;;;;;;;;;;;5093538;28;1902;-59
2024/01/26 00:02:34;;;;;;;;;;;;;;;;;;5075327;28;1058;-60
2024/01/26 00:05:00;;;;;;;;;;;;;;;;;;5094239;28;855;-60
2024/01/26 00:07:25;;;;;;;;;;;;;;;;;;5093521;28;987;-63
2024/01/26 00:09:50;;;;;;;;;;;;;;;;;;5093838;28;844;-60
2024/01/26 00:12:15;;;;;;;;;;;;;;;;;;5093061;28;875;-60
2024/01/26 00:14:41;;;;;;;;;;;;;;;;;;5091471;28;974;-59
2024/01/26 00:17:07;;;;;;;;;;;;;;;;;;5091347;28;869;-60
2024/01/26 00:19:32;;;;;;;;;;;;;;;;;;5092019;28;1977;-59
2024/01/26 00:21:58;;;;;;;;;;;;;;;;;;5073447;28;1521;-59
2024/01/26 00:24:23;;;;;;;;;;;;;;;;;;5073368;28;927;-60
2024/01/26 00:26:48;;;;;;;;;;;;;;;;;;5091551;28;1034;-59
2024/01/26 00:29:13;;;;;;;;;;;;;;;;;;5093042;28;824;-60
2024/01/26 00:31:39;;;;;;;;;;;;;;;;;;5075407;28;1290;-59
2024/01/26 00:34:04;;;;;;;;;;;;;;;;;;5093073;28;991;-59
2024/01/26 00:36:29;;;;;;;;;;;;;;;;;;5093300;28;1112;-59
2024/01/26 00:38:55;;;;;;;;;;;;;;;;;;5093162;28;1910;-58
2024/01/26 00:41:20;;;;;;;;;;;;;;;;;;5093839;28;863;-59
2024/01/26 00:43:46;;;;;;;;;;;;;;;;;;5096252;28;1050;-59
2024/01/26 00:46:11;;;;;;;;;;;;;;;;;;5097785;28;813;-59
2024/01/26 00:48:36;;;;;;;;;;;;;;;;;;5097187;28;983;-59
2024/01/26 00:51:03;;;;;;;;;;;;;;;;;;5097047;28;864;-59
2024/01/26 00:53:29;;;;;;;;;;;;;;;;;;5096743;28;826;-59
2024/01/26 00:55:54;;;;;;;;;;;;;;;;;;5096464;28;1017;-59
2024/01/26 00:58:19;;;;;;;;;;;;;;;;;;5096907;28;1967;-59
2024/01/26 01:00:45;;;;;;;;;;;;;;;;;;5097431;28;844;-59
2024/01/26 01:03:10;;;;;;;;;;;;;;;;;;5097564;28;710;-59
2024/01/26 01:05:35;;;;;;;;;;;;;;;;;;5096922;28;805;-59
2024/01/26 01:08:01;;;;;;;;;;;;;;;;;;5097431;28;831;-59
2024/01/26 01:10:26;;;;;;;;;;;;;;;;;;5096641;28;963;-59
2024/01/26 01:12:52;;;;;;;;;;;;;;;;;;5096892;28;1021;-60
2024/01/26 01:15:17;;;;;;;;;;;;;;;;;;5096965;28;860;-60
2024/01/26 01:17:43;;;;;;;;;;;;;;;;;;5095961;28;986;-60
2024/01/26 01:20:10;;;;;;;;;;;;;;;;;;5096188;28;1909;-60
2024/01/26 01:22:35;;;;;;;;;;;;;;;;;;5096490;28;1177;-60
2024/01/26 01:25:01;;;;;;;;;;;;;;;;;;5096732;28;913;-60
2024/01/26 01:27:26;;;;;;;;;;;;;;;;;;5096322;28;910;-60
2024/01/26 01:29:52;;;;;;;;;;;;;;;;;;5096739;28;1037;-60
2024/01/26 01:32:17;;;;;;;;;;;;;;;;;;5096495;28;797;-60
2024/01/26 01:34:43;;;;;;;;;;;;;;;;;;5096353;28;900;-59
2024/01/26 01:37:08;;;;;;;;;;;;;;;;;;5078364;28;1227;-59
2024/01/26 01:39:33;;;;;;;;;;;;;;;;;;5078388;28;1918;-59
2024/01/26 01:41:59;;;;;;;;;;;;;;;;;;5096761;28;852;-59
2024/01/26 01:44:24;;;;;;;;;;;;;;;;;;5093721;28;1171;-59
2024/01/26 01:46:49;;;;;;;;;;;;;;;;;;5092626;28;1163;-59
2024/01/26 01:49:14;;;;;;;;;;;;;;;;;;5094228;28;1258;-59
2024/01/26 01:51:43;;;;;;;;;;;;;;;;;;5095639;28;1058;-59
2024/01/26 01:54:09;;;;;;;;;;;;;;;;;;5094248;28;915;-59
2024/01/26 01:56:37;;;;;;;;;;;;;;;;;;5095383;28;1427;-59
2024/01/26 01:59:03;;;;;;;;;;;;;;;;;;5095431;28;1961;-59
2024/01/26 02:01:28;;;;;;;;;;;;;;;;;;5095197;28;1070;-59
2024/01/26 02:03:54;;;;;;;;;;;;;;;;;;5095473;28;892;-59
2024/01/26 02:06:19;;;;;;;;;;;;;;;;;;5095076;28;940;-59
2024/01/26 02:08:44;;;;;;;;;;;;;;;;;;5095286;28;1057;-59
2024/01/26 02:11:10;;;;;;;;;;;;;;;;;;5095215;28;943;-59
2024/01/26 02:13:35;;;;;;;;;;;;;;;;;;5095291;28;856;-60
2024/01/26 02:16:00;;;;;;;;;;;;;;;;;;5095331;28;979;-59
2024/01/26 02:18:25;;;;;;;;;;;;;;;;;;5095352;28;1909;-59
2024/01/26 02:20:51;;;;;;;;;;;;;;;;;;5094969;28;812;-59
2024/01/26 02:23:25;;;;;;;;;;;;;;;;;;5094805;28;896;-59
2024/01/26 02:25:50;;;;;;;;;;;;;;;;;;5094815;28;812;-59
2024/01/26 02:28:15;;;;;;;;;;;;;;;;;;5094982;28;935;-59
2024/01/26 02:30:41;;;;;;;;;;;;;;;;;;5094969;28;904;-59
2024/01/26 02:33:06;;;;;;;;;;;;;;;;;;5094887;28;896;-59
2024/01/26 02:35:31;;;;;;;;;;;;;;;;;;5094952;28;964;-60
2024/01/26 02:37:56;;;;;;;;;;;;;;;;;;5076275;28;931;-60
2024/01/26 02:40:21;;;;;;;;;;;;;;;;;;5094498;28;1875;-59
2024/01/26 02:42:47;;;;;;;;;;;;;;;;;;5094494;28;1034;-58
2024/01/26 02:45:12;;;;;;;;;;;;;;;;;;5094535;28;924;-58
2024/01/26 02:47:37;;;;;;;;;;;;;;;;;;5094718;28;945;-59
2024/01/26 02:50:03;;;;;;;;;;;;;;;;;;5094501;28;852;-58
2024/01/26 02:52:29;;;;;;;;;;;;;;;;;;5094852;28;923;-60
2024/01/26 02:54:54;;;;;;;;;;;;;;;;;;5094143;28;974;-59
2024/01/26 02:57:19;;;;;;;;;;;;;;;;;;5094062;28;1040;-59
2024/01/26 02:59:44;;;;;;;;;;;;;;;;;;5094121;28;1986;-59
2024/01/26 03:02:10;;;;;;;;;;;;;;;;;;5094230;28;970;-60
2024/01/26 03:04:35;;;;;;;;;;;;;;;;;;5093765;28;757;-58
2024/01/26 03:07:00;;;;;;;;;;;;;;;;;;5093757;28;813;-58
2024/01/26 03:09:25;;;;;;;;;;;;;;;;;;5094210;28;1097;-59
2024/01/26 03:11:50;;;;;;;;;;;;;;;;;;5075525;28;813;-59
2024/01/26 03:14:16;;;;;;;;;;;;;;;;;;5094446;28;927;-59
2024/01/26 03:16:41;;;;;;;;;;;;;;;;;;5093648;28;946;-59
2024/01/26 03:19:07;;;;;;;;;;;;;;;;;;5094076;28;1901;-59
2024/01/26 03:21:32;;;;;;;;;;;;;;;;;;5094352;28;910;-59
2024/01/26 03:23:57;;;;;;;;;;;;;;;;;;5094221;28;1073;-60
2024/01/26 03:26:23;;;;;;;;;;;;;;;;;;5093718;28;864;-59
2024/01/26 03:28:48;;;;;;;;;;;;;;;;;;5093923;28;799;-59
2024/01/26 03:31:13;;;;;;;;;;;;;;;;;;5093784;28;777;-59
2024/01/26 03:33:39;;;;;;;;;;;;;;;;;;5093391;28;998;-59
2024/01/26 03:36:05;;;;;;;;;;;;;;;;;;5091701;28;1128;-60
2024/01/26 03:38:30;;;;;;;;;;;;;;;;;;5089066;28;1969;-59
2024/01/26 03:40:55;;;;;;;;;;;;;;;;;;5091588;28;915;-59
2024/01/26 03:43:20;;;;;;;;;;;;;;;;;;5091772;28;757;-59
2024/01/26 03:45:46;;;;;;;;;;;;;;;;;;5091962;28;907;-59
2024/01/26 03:48:11;;;;;;;;;;;;;;;;;;5056191;28;1599;-59
2024/01/26 03:50:37;;;;;;;;;;;;;;;;;;5092158;28;991;-59
2024/01/26 03:53:02;;;;;;;;;;;;;;;;;;5093827;28;804;-59
2024/01/26 03:55:28;;;;;;;;;;;;;;;;;;5093557;28;893;-59
2024/01/26 03:57:53;;;;;;;;;;;;;;;;;;5093937;28;1002;-59
2024/01/26 04:00:18;;;;;;;;;;;;;;;;;;5093813;28;1956;-58
2024/01/26 04:02:44;;;;;;;;;;;;;;;;;;5093507;28;907;-58
2024/01/26 04:05:09;;;;;;;;;;;;;;;;;;5093638;28;931;-59
2024/01/26 04:07:34;;;;;;;;;;;;;;;;;;5093580;28;904;-59
2024/01/26 04:10:00;;;;;;;;;;;;;;;;;;5093500;28;1054;-60
2024/01/26 04:12:25;;;;;;;;;;;;;;;;;;5093521;28;994;-59
2024/01/26 04:14:50;;;;;;;;;;;;;;;;;;5093229;28;765;-60
2024/01/26 04:17:15;;;;;;;;;;;;;;;;;;5092680;28;805;-59
2024/01/26 04:19:40;;;;;;;;;;;;;;;;;;5093286;28;1902;-59
2024/01/26 04:22:06;;;;;;;;;;;;;;;;;;5093545;28;856;-59
2024/01/26 04:24:31;;;;;;;;;;;;;;;;;;5093864;28;996;-59
2024/01/26 04:26:56;;;;;;;;;;;;;;;;;;5093196;28;908;-59
2024/01/26 04:29:22;;;;;;;;;;;;;;;;;;5093486;28;904;-59
2024/01/26 04:31:47;;;;;;;;;;;;;;;;;;5093292;28;1004;-59
2024/01/26 04:34:12;;;;;;;;;;;;;;;;;;5093466;28;970;-59
2024/01/26 04:36:37;;;;;;;;;;;;;;;;;;5093343;28;872;-59
2024/01/26 04:39:03;;;;;;;;;;;;;;;;;;5093570;28;1949;-59
2024/01/26 04:41:28;;;;;;;;;;;;;;;;;;5093403;28;991;-59
2024/01/26 04:43:54;;;;;;;;;;;;;;;;;;5094194;28;922;-59
2024/01/26 04:46:19;;;;;;;;;;;;;;;;;;5092946;28;789;-59
2024/01/26 04:48:44;;;;;;;;;;;;;;;;;;5092934;28;903;-59
2024/01/26 04:51:09;;;;;;;;;;;;;;;;;;5093213;28;899;-59
2024/01/26 04:53:35;;;;;;;;;;;;;;;;;;5093291;28;1022;-59
2024/01/26 04:56:01;;;;;;;;;;;;;;;;;;5077857;28;1210;-59
2024/01/26 04:58:26;;;;;;;;;;;;;;;;;;5093164;28;1953;-59
2024/01/26 05:00:52;;;;;;;;;;;;;;;;;;5093708;28;809;-59
2024/01/26 05:03:18;;;;;;;;;;;;;;;;;;5089859;28;1163;-59
2024/01/26 05:05:44;;;;;;;;;;;;;;;;;;5087364;28;1199;-59
2024/01/26 05:08:09;;;;;;;;;;;;;;;;;;5088341;28;1210;-59
2024/01/26 05:10:34;;;;;;;;;;;;;;;;;;5090943;28;1246;-59
2024/01/26 05:12:59;;;;;;;;;;;;;;;;;;5091458;28;879;-59
2024/01/26 05:15:25;;;;;;;;;;;;;;;;;;5091930;28;1038;-59
2024/01/26 05:17:50;;;;;;;;;;;;;;;;;;5091828;28;808;-59
2024/01/26 05:20:15;;;;;;;;;;;;;;;;;;5091882;28;1956;-59
2024/01/26 05:22:40;;;;;;;;;;;;;;;;;;5093324;28;1006;-59
2024/01/26 05:25:06;;;;;;;;;;;;;;;;;;5093434;28;1038;-59
2024/01/26 05:27:31;;;;;;;;;;;;;;;;;;5093073;28;820;-59
2024/01/26 05:29:56;;;;;;;;;;;;;;;;;;5095685;28;808;-59
2024/01/26 05:32:22;;;;;;;;;;;;;;;;;;5096597;28;1057;-65
2024/01/26 05:34:47;;;;;;;;;;;;;;;;;;5096961;28;844;-59
2024/01/26 05:37:12;;;;;;;;;;;;;;;;;;5094973;28;825;-58
2024/01/26 05:39:37;;;;;;;;;;;;;;;;;;5096136;28;1967;-59
2024/01/26 05:42:03;;;;;;;;;;;;;;;;;;5096814;28;895;-59
2024/01/26 05:44:28;;;;;;;;;;;;;;;;;;5096459;28;880;-59
2024/01/26 05:46:53;;;;;;;;;;;;;;;;;;5095773;28;825;-59
2024/01/26 05:49:18;;;;;;;;;;;;;;;;;;5096599;28;864;-58
2024/01/26 05:51:44;;;;;;;;;;;;;;;;;;5096096;28;860;-59
2024/01/26 05:54:10;;;;;;;;;;;;;;;;;;5096226;28;840;-59
2024/01/26 05:56:38;;;;;;;;;;;;;;;;;;5095578;28;937;-59
2024/01/26 05:59:03;;;;;;;;;;;;;;;;;;5096155;28;1918;-58
2024/01/26 06:01:28;;;;;;;;;;;;;;;;;;5095821;28;876;-59
2024/01/26 06:03:54;;;;;;;;;;;;;;;;;;5095799;28;879;-58
2024/01/26 06:06:19;;;;;;;;;;;;;;;;;;5095665;28;858;-58
2024/01/26 06:08:44;;;;;;;;;;;;;;;;;;5095381;28;940;-59
2024/01/26 06:11:10;;;;;;;;;;;;;;;;;;5095817;28;861;-59
2024/01/26 06:13:35;;;;;;;;;;;;;;;;;;5095632;28;808;-59
2024/01/26 06:16:00;;;;;;;;;;;;;;;;;;5095719;28;875;-59
2024/01/26 06:18:26;;;;;;;;;;;;;;;;;;5095567;28;1961;-63
2024/01/26 06:20:51;;;;;;;;;;;;;;;;;;5095782;28;1014;-64
2024/01/26 06:23:16;;;;;;;;;;;;;;;;;;5095816;28;892;-64
2024/01/26 06:25:41;;;;;;;;;;;;;;;;;;5095601;28;813;-64
2024/01/26 06:28:06;;;;;;;;;;;;;;;;;;5095316;28;880;-64
2024/01/26 06:30:32;;;;;;;;;;;;;;;;;;5094830;28;983;-64
2024/01/26 06:32:57;;;;;;;;;;;;;;;;;;5095415;28;887;-63
2024/01/26 06:35:22;;;;;;;;;;;;;;;;;;5094763;28;864;-63
2024/01/26 06:37:47;;;;;;;;;;;;;;;;;;5094797;28;841;-64
2024/01/26 06:40:13;;;;;;;;;;;;;;;;;;5094514;28;1905;-65
2024/01/26 06:42:39;;;;;;;;;;;;;;;;;;5095183;28;1037;-65
2024/01/26 06:45:04;;;;;;;;;;;;;;;;;;5095685;28;919;-65
2024/01/26 06:47:30;;;;;;;;;;;;;;;;;;5094892;28;651;-65
2024/01/26 06:49:55;;;;;;;;;;;;;;;;;;5095095;28;991;-65
2024/01/26 06:52:20;;;;;;;;;;;;;;;;;;5094995;28;895;-66
2024/01/26 06:54:45;;;;;;;;;;;;;;;;;;5077078;28;923;-66
2024/01/26 06:57:10;;;;;;;;;;;;;;;;;;5094134;28;948;-64
2024/01/26 06:59:38;;;;;;;;;;;;;;;;;;5094633;28;2201;-64
2024/01/26 07:02:04;;;;;;;;;;;;;;;;;;5094658;28;962;-64
2024/01/26 07:04:29;;;;;;;;;;;;;;;;;;5091364;28;1349;-64
2024/01/26 07:06:54;;;;;;;;;;;;;;;;;;5090157;28;1144;-59
2024/01/26 07:09:20;;;;;;;;;;;;;;;;;;5091494;28;1183;-59
2024/01/26 07:11:45;;;;;;;;;;;;;;;;;;5092599;28;924;-59
2024/01/26 07:14:10;;;;;;;;;;;;;;;;;;5092941;28;1373;-59
2024/01/26 07:16:35;;;;;;;;;;;;;;;;;;5092352;28;587;-59
2024/01/26 07:19:01;;;;;;;;;;;;;;;;;;5092803;28;1886;-59
2024/01/26 07:21:26;;;;;;;;;;;;;;;;;;5094281;28;809;-59
2024/01/26 07:23:51;;;;;;;;;;;;;;;;;;5094415;28;864;-60
2024/01/26 07:26:17;;;;;;;;;;;;;;;;;;5094026;28;890;-59
2024/01/26 07:28:42;;;;;;;;;;;;;;;;;;5094154;28;915;-63
2024/01/26 07:31:08;;;;;;;;;;;;;;;;;;5092728;28;1033;-63
2024/01/26 07:33:33;;;;;;;;;;;;;;;;;;5094195;28;892;-63
2024/01/26 07:35:58;;;;;;;;;;;;;;;;;;5093879;28;817;-64
2024/01/26 07:38:23;;;;;;;;;;;;;;;;;;5093824;28;2006;-63
2024/01/26 07:40:49;;;;;;;;;;;;;;;;;;5094176;28;840;-64
2024/01/26 07:43:15;;;;;;;;;;;;;;;;;;5093830;28;873;-64
2024/01/26 07:45:40;;;;;;;;;;;;;;;;;;5093751;28;848;-63
2024/01/26 07:48:05;;;;;;;;;;;;;;;;;;5075509;28;1504;-64
2024/01/26 07:50:31;;;;;;;;;;;;;;;;;;5093760;28;836;-63
2024/01/26 07:52:57;;;;;;;;;;;;;;;;;;5092626;28;805;-63
2024/01/26 07:55:22;;;;;;;;;;;;;;;;;;5094609;28;985;-63
2024/01/26 07:57:48;;;;;;;;;;;;;;;;;;5113927;28;832;-64
2024/01/26 08:00:13;;;;;;;;;;;;;;;;;;5113387;28;1905;-63
2024/01/26 08:02:38;;;;;;;;;;;;;;;;;;5110394;28;1123;-63
2024/01/26 08:05:04;;;;;;;;;;;;;;;;;;5110876;28;1210;-59
2024/01/26 08:07:30;;;;;;;;;;;;;;;;;;5097919;28;1100;-59
2024/01/26 08:09:55;;;;;;;;;;;;;;;;;;5087540;28;1846;-59
2024/01/26 08:12:20;;;;;;;;;;;;;;;;;;5091060;28;1170;-60
2024/01/26 08:14:46;;;;;;;;;;;;;;;;;;5091503;28;789;-59
2024/01/26 08:17:11;;;;;;;;;;;;;;;;;;5091513;28;832;-60
2024/01/26 08:19:36;;;;;;;;;;;;;;;;;;5091407;28;1898;-60
2024/01/26 08:22:03;;;;;;;;;;;;;;;;;;5091815;28;1194;-59
2024/01/26 08:24:29;;;;;;;;;;;;;;;;;;5110841;28;1158;-60
2024/01/26 08:26:54;;;;;;;;;;;;;;;;;;5102959;28;1253;-59
2024/01/26 08:29:21;;;;;;;;;;;;;;;;;;5093169;28;1218;-59
2024/01/26 08:31:47;;;;;;;;;;;;;;;;;;5110022;28;1195;-59
2024/01/26 08:34:12;;;;;;;;;;;;;;;;;;5113417;28;994;-60
2024/01/26 08:36:37;;;;;;;;;;;;;;;;;;5113597;28;899;-59
2024/01/26 08:39:04;;;;;;;;;;;;;;;;;;5113730;28;1973;-59
2024/01/26 08:41:29;;;;;;;;;;;;;;;;;;5112369;28;1350;-59
2024/01/26 08:43:54;;;;;;;;;;;;;;;;;;5113519;28;948;-60
2024/01/26 08:46:20;;;;;;;;;;;;;;;;;;5113492;28;939;-60
2024/01/26 08:48:45;;;;;;;;;;;;;;;;;;5113688;28;890;-59
2024/01/26 08:51:10;;;;;;;;;;;;;;;;;;5113576;28;973;-59
2024/01/26 08:53:36;;;;;;;;;;;;;;;;;;5112021;28;1454;-59
2024/01/26 08:56:05;;;;;;;;;;;;;;;;;;5113583;28;973;-60
2024/01/26 08:58:30;;;;;;;;;;;;;;;;;;5113137;28;1961;-59
2024/01/26 09:00:55;;;;;;;;;;;;;;;;;;5113132;28;970;-59
2024/01/26 09:03:21;;;;;;;;;;;;;;;;;;5113671;28;1038;-60
2024/01/26 09:05:46;;;;;;;;;;;;;;;;;;5115402;28;1202;-59
2024/01/26 09:08:11;;;;;;;;;;;;;;;;;;5107137;28;1210;-60
2024/01/26 09:10:36;;;;;;;;;;;;;;;;;;5092431;28;1163;-59
2024/01/26 09:13:02;;;;;;;;;;;;;;;;;;5095032;28;853;-59
2024/01/26 09:15:27;;;;;;;;;;;;;;;;;;5094675;28;861;-59
2024/01/26 09:17:52;;;;;;;;;;;;;;;;;;5094635;28;920;-59
2024/01/26 09:20:18;;;;;;;;;;;;;;;;;;5094773;28;1974;-59
2024/01/26 09:22:43;;;;;;;;;;;;;;;;;;5095863;28;946;-60
2024/01/26 09:25:08;;;;;;;;;;;;;;;;;;5095666;28;1263;-60
2024/01/26 09:27:33;;;;;;;;;;;;;;;;;;5096954;28;841;-60
2024/01/26 09:30:00;;;;;;;;;;;;;;;;;;5095812;28;1159;-60
2024/01/26 09:32:25;;;;;;;;;;;;;;;;;;5093879;28;1234;-59
2024/01/26 09:34:50;;;;;;;;;;;;;;;;;;5113209;28;1190;-60
2024/01/26 09:37:15;;;;;;;;;;;;;;;;;;5103778;28;1269;-60
2024/01/26 09:39:41;;;;;;;;;;;;;;;;;;5095037;28;1897;-60
2024/01/26 09:42:06;;;;;;;;;;;;;;;;;;5096072;28;994;-60
2024/01/26 09:44:31;;;;;;;;;;;;;;;;;;5096374;28;1008;-60
2024/01/26 09:46:57;;;;;;;;;;;;;;;;;;5096074;28;888;-60
2024/01/26 09:49:23;;;;;;;;;;;;;;;;;;5095784;28;1250;-60
2024/01/26 09:51:48;;;;;;;;;;;;;;;;;;5099635;28;1151;-60
2024/01/26 09:54:15;;;;;;;;;;;;;;;;;;5099927;28;1170;-60
2024/01/26 09:56:41;;;;;;;;;;;;;;;;;;5093248;28;1186;-60
2024/01/26 09:59:08;;;;;;;;;;;;;;;;;;5093139;28;1972;-60
2024/01/26 10:01:34;;;;;;;;;;;;;;;;;;5075297;28;1254;-60
2024/01/26 10:04:00;;;;;;;;;;;;;;;;;;5075543;28;1230;-60
2024/01/26 10:06:26;;;;;;;;;;;;;;;;;;5093391;28;1151;-61
2024/01/26 10:08:51;;;;;;;;;;;;;;;;;;5093223;28;1203;-60
2024/01/26 10:11:16;;;;;;;;;;;;;;;;;;5094130;28;1171;-60
2024/01/26 10:13:42;;;;;;;;;;;;;;;;;;5095982;28;991;-60
2024/01/26 10:16:09;;;;;;;;;;;;;;;;;;5094434;28;1096;-60
2024/01/26 10:18:42;;;;;;;;;;;;;;;;;;5096336;28;1894;-62
2024/01/26 10:21:07;;;;;;;;;;;;;;;;;;5095810;28;977;-60
2024/01/26 10:23:32;;;;;;;;;;;;;;;;;;5095628;28;891;-60
2024/01/26 10:25:57;;;;;;;;;;;;;;;;;;5095682;28;856;-60
2024/01/26 10:28:23;;;;;;;;;;;;;;;;;;5095439;28;879;-60
2024/01/26 10:30:48;;;;;;;;;;;;;;;;;;5095450;28;809;-60
2024/01/26 10:33:13;;;;;;;;;;;;;;;;;;5095286;28;934;-60
2024/01/26 10:35:44;;;;;;;;;;;;;;;;;;5095196;28;912;-60
2024/01/26 10:38:10;;;;;;;;;;;;;;;;;;5095271;28;951;-60
2024/01/26 10:40:36;;;;;;;;;;;;;;;;;;5094879;28;1906;-61
2024/01/26 10:43:02;;;;;;;;;;;;;;;;;;5095283;28;852;-60
2024/01/26 10:45:27;;;;;;;;;;;;;;;;;;5094888;28;998;-60
2024/01/26 10:47:54;;;;;;;;;;;;;;;;;;5094810;28;998;-60
2024/01/26 10:50:19;;;;;;;;;;;;;;;;;;5094815;28;1003;-60
2024/01/26 10:52:47;;;;;;;;;;;;;;;;;;5094711;28;999;-60
2024/01/26 10:55:14;;;;;;;;;;;;;;;;;;5076665;28;981;-60
2024/01/26 10:57:39;;;;;;;;;;;;;;;;;;5114717;28;948;-60
2024/01/26 11:00:06;;;;;;;;;;;;;;;;;;5109753;28;1974;-60
2024/01/26 11:02:32;;;;;;;;;;;;;;;;;;5098519;28;1155;-60
2024/01/26 11:04:58;;;;;;;;;;;;;;;;;;5100218;28;1158;-60
2024/01/26 11:07:24;;;;;;;;;;;;;;;;;;5109175;28;1183;-61
2024/01/26 11:09:50;;;;;;;;;;;;;;;;;;5113131;28;820;-66
2024/01/26 11:12:22;;;;;;;;;;;;;;;;;;5112570;28;789;-66
2024/01/26 11:15:13;;;;;;;;;;;;;;;;;;5113379;28;840;-65
2024/01/26 11:17:45;;;;;;;;;;;;;;;;;;5112876;28;876;-65
2024/01/26 11:20:12;;;;;;;;;;;;;;;;;;5113054;28;1906;-65
2024/01/26 11:22:38;;;;;;;;;;;;;;;;;;5113207;28;899;-60
2024/01/26 11:25:03;;;;;;;;;;;;;;;;;;5114840;28;987;-60
2024/01/26 11:27:29;;;;;;;;;;;;;;;;;;5114517;28;857;-61
2024/01/26 11:29:55;;;;;;;;;;;;;;;;;;5114507;28;836;-60
2024/01/26 11:32:22;;;;;;;;;;;;;;;;;;5114568;28;1014;-61
2024/01/26 11:34:58;;;;;;;;;;;;;;;;;;5114311;28;860;-61
2024/01/26 11:37:26;;;;;;;;;;;;;;;;;;5115135;28;772;-61
2024/01/26 11:39:51;;;;;;;;;;;;;;;;;;5114201;28;1894;-60
2024/01/26 11:42:17;;;;;;;;;;;;;;;;;;5114445;28;828;-60
2024/01/26 11:44:42;;;;;;;;;;;;;;;;;;5113913;28;904;-60
2024/01/26 11:47:08;;;;;;;;;;;;;;;;;;5114159;28;857;-61
2024/01/26 11:49:33;;;;;;;;;;;;;;;;;;5113550;28;978;-61
2024/01/26 11:51:58;;;;;;;;;;;;;;;;;;5113471;28;876;-60
2024/01/26 11:54:24;;;;;;;;;;;;;;;;;;5113032;28;970;-60
2024/01/26 11:56:49;;;;;;;;;;;;;;;;;;5112470;28;1028;-60
2024/01/26 11:59:15;;;;;;;;;;;;;;;;;;5114373;28;1971;-60
2024/01/26 12:01:40;;;;;;;;;;;;;;;;;;5114097;28;879;-60
2024/01/26 12:04:05;;;;;;;;;;;;;;;;;;5113735;28;1006;-61
2024/01/26 12:06:31;;;;;;;;;;;;;;;;;;5114516;28;911;-61
2024/01/26 12:08:56;;;;;;;;;;;;;;;;;;5113524;28;888;-60
2024/01/26 12:11:22;;;;;;;;;;;;;;;;;;5113743;28;902;-61
2024/01/26 12:13:48;;;;;;;;;;;;;;;;;;5113570;28;859;-60
2024/01/26 12:16:14;;;;;;;;;;;;;;;;;;5114049;28;860;-61
2024/01/26 12:18:42;;;;;;;;;;;;;;;;;;5113370;28;1905;-60
2024/01/26 12:21:08;;;;;;;;;;;;;;;;;;5114111;28;836;-61
2024/01/26 12:23:33;;;;;;;;;;;;;;;;;;5114171;28;931;-60
2024/01/26 12:25:59;;;;;;;;;;;;;;;;;;5114135;28;780;-60
2024/01/26 12:28:27;;;;;;;;;;;;;;;;;;5114376;28;833;-61
2024/01/26 12:30:52;;;;;;;;;;;;;;;;;;5113791;28;936;-61
2024/01/26 12:33:17;;;;;;;;;;;;;;;;;;5113340;28;836;-60
2024/01/26 12:35:43;;;;;;;;;;;;;;;;;;5113387;28;820;-60
2024/01/26 12:38:09;;;;;;;;;;;;;;;;;;5113305;28;773;-60
2024/01/26 12:40:35;;;;;;;;;;;;;;;;;;5116463;28;1886;-60
2024/01/26 12:43:03;;;;;;;;;;;;;;;;;;5117528;28;857;-60
2024/01/26 12:45:28;;;;;;;;;;;;;;;;;;5115435;28;1139;-61
2024/01/26 12:47:54;;;;;;;;;;;;;;;;;;5114336;27;1147;-60
2024/01/26 12:50:19;;;;;;;;;;;;;;;;;;5114829;28;1139;-61
2024/01/26 12:52:44;;;;;;;;;;;;;;;;;;5114831;28;1162;-61
2024/01/26 12:55:10;;;;;;;;;;;;;;;;;;5112818;28;1265;-61
2024/01/26 12:57:35;;;;;;;;;;;;;;;;;;5112023;28;1146;-62
2024/01/26 13:00:00;;;;;;;;;;;;;;;;;;5114897;28;1969;-62
2024/01/26 13:02:25;;;;;;;;;;;;;;;;;;5114637;28;1080;-62
2024/01/26 13:04:52;;;;;;;;;;;;;;;;;;5109050;28;1004;-63
2024/01/26 13:07:18;;;;;;;;;;;;;;;;;;5094184;28;1172;-62
2024/01/26 13:09:43;;;;;;;;;;;;;;;;;;5095739;28;1151;-60
2024/01/26 13:12:09;;;;;;;;;;;;;;;;;;5095150;28;884;-62
2024/01/26 13:14:34;;;;;;;;;;;;;;;;;;5094742;28;820;-63
2024/01/26 13:17:00;;;;;;;;;;;;;;;;;;5095020;28;1096;-62
2024/01/26 13:19:25;;;;;;;;;;;;;;;;;;5094983;28;1945;-63
2024/01/26 13:21:50;;;;;;;;;;;;;;;;;;5094621;28;967;-63
2024/01/26 13:24:16;;;;;;;;;;;;;;;;;;5093248;28;1329;-62
2024/01/26 13:26:42;;;;;;;;;;;;;;;;;;5096250;28;869;-62
2024/01/26 13:29:08;;;;;;;;;;;;;;;;;;5095596;28;1213;-62
2024/01/26 13:31:33;;;;;;;;;;;;;;;;;;5097101;28;746;-62
2024/01/26 13:33:58;;;;;;;;;;;;;;;;;;5096818;28;844;-62
2024/01/26 13:36:23;;;;;;;;;;;;;;;;;;5097050;28;919;-62
2024/01/26 13:38:49;;;;;;;;;;;;;;;;;;5096814;28;1953;-62
2024/01/26 13:41:15;;;;;;;;;;;;;;;;;;5096720;28;979;-62
2024/01/26 13:43:41;;;;;;;;;;;;;;;;;;5097350;28;817;-62
2024/01/26 13:46:06;;;;;;;;;;;;;;;;;;5096272;28;959;-62
2024/01/26 13:48:34;;;;;;;;;;;;;;;;;;5096441;28;990;-62
2024/01/26 13:50:59;;;;;;;;;;;;;;;;;;5096472;28;835;-62
2024/01/26 13:53:25;;;;;;;;;;;;;;;;;;5095852;28;892;-62
2024/01/26 13:55:50;;;;;;;;;;;;;;;;;;5094996;28;1006;-62
2024/01/26 13:58:16;;;;;;;;;;;;;;;;;;5096183;28;896;-62
2024/01/26 14:00:43;;;;;;;;;;;;;;;;;;5095500;28;1977;-63
2024/01/26 14:03:08;;;;;;;;;;;;;;;;;;5095823;28;832;-62
2024/01/26 14:05:34;;;;;;;;;;;;;;;;;;5096202;28;1015;-63
2024/01/26 14:08:00;;;;;;;;;;;;;;;;;;5096343;28;895;-63
2024/01/26 14:10:25;;;;;;;;;;;;;;;;;;5095560;28;923;-63
2024/01/26 14:12:50;;;;;;;;;;;;;;;;;;5095249;28;816;-63
2024/01/26 14:15:16;;;;;;;;;;;;;;;;;;5077718;28;1171;-62
2024/01/26 14:17:42;;;;;;;;;;;;;;;;;;5095256;28;825;-62
2024/01/26 14:20:07;;;;;;;;;;;;;;;;;;5095444;28;1905;-62
2024/01/26 14:22:32;;;;;;;;;;;;;;;;;;5095500;28;1241;-62
2024/01/26 14:24:58;;;;;;;;;;;;;;;;;;5095636;28;864;-62
2024/01/26 14:27:23;;;;;;;;;;;;;;;;;;5095361;28;821;-63
2024/01/26 14:29:49;;;;;;;;;;;;;;;;;;5095656;28;966;-63
2024/01/26 14:32:14;;;;;;;;;;;;;;;;;;5095508;28;824;-62
2024/01/26 14:34:39;;;;;;;;;;;;;;;;;;5095587;28;978;-62
2024/01/26 14:37:04;;;;;;;;;;;;;;;;;;5095679;28;1030;-63
2024/01/26 14:39:30;;;;;;;;;;;;;;;;;;5094643;28;1897;-62
2024/01/26 14:41:55;;;;;;;;;;;;;;;;;;5095385;28;1026;-62
2024/01/26 14:44:20;;;;;;;;;;;;;;;;;;5095159;28;749;-62
2024/01/26 14:46:46;;;;;;;;;;;;;;;;;;5095008;28;1062;-63
2024/01/26 14:49:12;;;;;;;;;;;;;;;;;;5095155;28;812;-62
2024/01/26 14:51:40;;;;;;;;;;;;;;;;;;5095310;28;982;-63
2024/01/26 14:54:05;;;;;;;;;;;;;;;;;;5095042;28;856;-62
2024/01/26 14:56:31;;;;;;;;;;;;;;;;;;5094818;28;1014;-62
2024/01/26 14:58:56;;;;;;;;;;;;;;;;;;5094714;28;1971;-62
2024/01/26 15:01:21;;;;;;;;;;;;;;;;;;5094431;28;932;-63
2024/01/26 15:03:47;;;;;;;;;;;;;;;;;;5094791;28;841;-62
2024/01/26 15:06:12;;;;;;;;;;;;;;;;;;5095123;28;904;-62
2024/01/26 15:08:38;;;;;;;;;;;;;;;;;;5094603;28;813;-63
2024/01/26 15:11:04;;;;;;;;;;;;;;;;;;5095176;28;880;-64
2024/01/26 15:13:29;;;;;;;;;;;;;;;;;;5093096;28;911;-63
2024/01/26 15:15:54;;;;;;;;;;;;;;;;;;5092588;28;1132;-63
2024/01/26 15:18:19;;;;;;;;;;;;;;;;;;5092939;28;896;-63
2024/01/26 15:20:44;;;;;;;;;;;;;;;;;;5093224;28;1910;-63
2024/01/26 15:23:10;;;;;;;;;;;;;;;;;;5093274;28;887;-62
2024/01/26 15:25:35;;;;;;;;;;;;;;;;;;5074191;28;991;-62
2024/01/26 15:28:00;;;;;;;;;;;;;;;;;;5093869;28;983;-62
2024/01/26 15:30:25;;;;;;;;;;;;;;;;;;5094352;28;880;-62
2024/01/26 15:32:51;;;;;;;;;;;;;;;;;;5094208;28;827;-63
2024/01/26 15:35:16;;;;;;;;;;;;;;;;;;5094232;28;884;-62
2024/01/26 15:37:41;;;;;;;;;;;;;;;;;;5093838;28;789;-62
2024/01/26 15:40:07;;;;;;;;;;;;;;;;;;5093836;28;1980;-63
2024/01/26 15:42:32;;;;;;;;;;;;;;;;;;5094029;28;818;-63
2024/01/26 15:44:59;;;;;;;;;;;;;;;;;;5093871;28;849;-62
2024/01/26 15:47:25;;;;;;;;;;;;;;;;;;5094055;28;867;-62
2024/01/26 15:49:50;;;;;;;;;;;;;;;;;;5093747;28;837;-62
2024/01/26 15:52:16;;;;;;;;;;;;;;;;;;5094053;28;919;-63
2024/01/26 15:54:41;;;;;;;;;;;;;;;;;;5093701;28;997;-63
2024/01/26 15:57:07;;;;;;;;;;;;;;;;;;5093492;28;1053;-62
2024/01/26 15:59:33;;;;;;;;;;;;;;;;;;5093755;28;1910;-63
2024/01/26 16:02:00;;;;;;;;;;;;;;;;;;5094065;28;808;-62
2024/01/26 16:04:25;;;;;;;;;;;;;;;;;;5093639;28;875;-63
2024/01/26 16:06:51;;;;;;;;;;;;;;;;;;5093516;28;951;-62
2024/01/26 16:09:18;;;;;;;;;;;;;;;;;;5093548;28;821;-63
2024/01/26 16:11:44;;;;;;;;;;;;;;;;;;5093291;28;1150;-62
2024/01/26 16:14:09;;;;;;;;;;;;;;;;;;5091199;28;809;-63
2024/01/26 16:16:34;;;;;;;;;;;;;;;;;;5070390;28;1306;-62
2024/01/26 16:18:59;;;;;;;;;;;;;;;;;;5070843;28;1902;-62
2024/01/26 16:21:25;;;;;;;;;;;;;;;;;;5091303;28;789;-62
2024/01/26 16:23:50;;;;;;;;;;;;;;;;;;5091127;28;820;-63
2024/01/26 16:26:15;;;;;;;;;;;;;;;;;;5091131;28;1056;-62
2024/01/26 16:28:41;;;;;;;;;;;;;;;;;;5092352;28;820;-62
2024/01/26 16:31:06;;;;;;;;;;;;;;;;;;5093759;28;1091;-61
2024/01/26 16:33:33;;;;;;;;;;;;;;;;;;5075300;28;1279;-62
2024/01/26 16:35:58;;;;;;;;;;;;;;;;;;5093307;28;883;-62
2024/01/26 16:38:23;;;;;;;;;;;;;;;;;;5093497;28;915;-62
2024/01/26 16:40:49;;;;;;;;;;;;;;;;;;5093355;28;1895;-62
2024/01/26 16:43:14;;;;;;;;;;;;;;;;;;5093487;28;935;-62
2024/01/26 16:45:39;;;;;;;;;;;;;;;;;;5093799;28;796;-62
2024/01/26 16:48:05;;;;;;;;;;;;;;;;;;5093339;28;867;-62
2024/01/26 16:50:30;;;;;;;;;;;;;;;;;;5093845;28;853;-62
2024/01/26 16:52:56;;;;;;;;;;;;;;;;;;5075453;28;1366;-62
2024/01/26 16:55:21;;;;;;;;;;;;;;;;;;5093726;28;996;-66
2024/01/26 16:57:47;;;;;;;;;;;;;;;;;;5113657;28;1057;-67
2024/01/26 17:00:13;;;;;;;;;;;;;;;;;;5113345;28;1910;-67